sensor_id;sensor_type;location;lat;lon;timestamp;pressure;altitude;pressure_sealevel;temperature;humidity
34674;BME280;20879;55.668;37.858;2024-03-29T00:03:31;99117.97;;;3.52;68.83
34674;BME280;20879;55.668;37.858;2024-03-29T00:14:29;99126.50;;;3.52;69.35
34674;BME280;20879;55.668;37.858;2024-03-29T00:19:47;99123.03;;;3.45;69.45
34674;BME280;20879;55.668;37.858;2024-03-29T00:24:53;99088.81;;;3.22;70.14
34674;BME280;20879;55.668;37.858;2024-03-29T00:30:09;99100.81;;;3.33;71.25
34674;BME280;20879;55.668;37.858;2024-03-29T00:35:19;99106.81;;;3.34;69.94
34674;BME280;20879;55.668;37.858;2024-03-29T00:40:35;99093.16;;;3.35;70.72
34674;BME280;20879;55.668;37.858;2024-03-29T00:45:47;99091.38;;;3.22;71.35
34674;BME280;20879;55.668;37.858;2024-03-29T00:51:01;99082.88;;;3.21;70.75
34674;BME280;20879;55.668;37.858;2024-03-29T00:56:06;99078.59;;;3.20;70.98
34674;BME280;20879;55.668;37.858;2024-03-29T01:01:20;99063.22;;;3.17;71.89
34674;BME280;20879;55.668;37.858;2024-03-29T01:06:35;99060.69;;;3.22;71.65
34674;BME280;20879;55.668;37.858;2024-03-29T01:11:50;99047.88;;;3.17;71.58
34674;BME280;20879;55.668;37.858;2024-03-29T01:17:03;99044.47;;;3.17;72.33
34674;BME280;20879;55.668;37.858;2024-03-29T01:22:16;99033.38;;;3.19;72.07
34674;BME280;20879;55.668;37.858;2024-03-29T01:27:24;99027.41;;;3.20;71.94
34674;BME280;20879;55.668;37.858;2024-03-29T01:32:34;99030.88;;;3.25;72.63
34674;BME280;20879;55.668;37.858;2024-03-29T01:37:55;99021.47;;;3.20;72.65
34674;BME280;20879;55.668;37.858;2024-03-29T01:43:04;99004.41;;;3.26;72.70
34674;BME280;20879;55.668;37.858;2024-03-29T01:48:16;98996.78;;;3.31;72.66
34674;BME280;20879;55.668;37.858;2024-03-29T01:53:24;98995.91;;;3.38;72.48
34674;BME280;20879;55.668;37.858;2024-03-29T01:58:41;98987.44;;;3.48;72.13
34674;BME280;20879;55.668;37.858;2024-03-29T02:03:51;98974.63;;;3.53;72.73
34674;BME280;20879;55.668;37.858;2024-03-29T02:09:24;98975.47;;;3.60;72.12
34674;BME280;20879;55.668;37.858;2024-03-29T02:14:33;98971.19;;;3.56;71.88
34674;BME280;20879;55.668;37.858;2024-03-29T02:19:44;98972.94;;;3.67;71.66
34674;BME280;20879;55.668;37.858;2024-03-29T02:24:53;98951.59;;;3.67;71.41
34674;BME280;20879;55.668;37.858;2024-03-29T02:30:04;98947.31;;;3.60;71.53
34674;BME280;20879;55.668;37.858;2024-03-29T02:35:17;98937.06;;;3.55;71.49
34674;BME280;20879;55.668;37.858;2024-03-29T02:40:33;98943.06;;;3.59;71.88
34674;BME280;20879;55.668;37.858;2024-03-29T02:45:40;98933.66;;;3.58;71.31
34674;BME280;20879;55.668;37.858;2024-03-29T02:50:49;98938.78;;;3.58;71.11
34674;BME280;20879;55.668;37.858;2024-03-29T02:55:56;98929.38;;;3.60;71.69
34674;BME280;20879;55.668;37.858;2024-03-29T03:01:09;98929.41;;;3.54;72.10
34674;BME280;20879;55.668;37.858;2024-03-29T03:06:24;98923.44;;;3.55;71.74
34674;BME280;20879;55.668;37.858;2024-03-29T03:11:45;98914.03;;;3.57;71.78
34674;BME280;20879;55.668;37.858;2024-03-29T03:16:59;98901.25;;;3.54;71.92
34674;BME280;20879;55.668;37.858;2024-03-29T03:22:14;98899.53;;;3.54;72.11
34674;BME280;20879;55.668;37.858;2024-03-29T03:27:24;98893.56;;;3.50;72.09
34674;BME280;20879;55.668;37.858;2024-03-29T03:32:37;98890.16;;;3.61;72.29
34674;BME280;20879;55.668;37.858;2024-03-29T03:37:45;98893.53;;;3.63;71.53
34674;BME280;20879;55.668;37.858;2024-03-29T03:42:56;98885.03;;;3.58;72.07
34674;BME280;20879;55.668;37.858;2024-03-29T03:48:11;98877.31;;;3.76;72.18
34674;BME280;20879;55.668;37.858;2024-03-29T03:53:21;98876.47;;;3.77;71.66
34674;BME280;20879;55.668;37.858;2024-03-29T03:58:35;98879.88;;;3.95;71.46
34674;BME280;20879;55.668;37.858;2024-03-29T04:04:00;98865.28;;;4.15;71.11
34674;BME280;20879;55.668;37.858;2024-03-29T04:09:08;98869.66;;;3.85;71.47
34674;BME280;20879;55.668;37.858;2024-03-29T04:14:18;98874.78;;;3.58;72.01
34674;BME280;20879;55.668;37.858;2024-03-29T04:19:23;98850.88;;;3.68;71.59
34674;BME280;20879;55.668;37.858;2024-03-29T04:24:31;98835.50;;;3.77;71.43
34674;BME280;20879;55.668;37.858;2024-03-29T04:29:38;98844.03;;;3.85;71.68
34674;BME280;20879;55.668;37.858;2024-03-29T04:34:48;98841.47;;;3.76;71.84
34674;BME280;20879;55.668;37.858;2024-03-29T04:39:55;98829.47;;;3.94;71.21
34674;BME280;20879;55.668;37.858;2024-03-29T04:45:05;98831.00;;;4.47;70.19
34674;BME280;20879;55.668;37.858;2024-03-29T04:50:17;98812.75;;;4.98;69.19
34674;BME280;20879;55.668;37.858;2024-03-29T04:55:27;98794.75;;;5.06;68.12
34674;BME280;20879;55.668;37.858;2024-03-29T05:00:42;98786.94;;;5.20;68.14
34674;BME280;20879;55.668;37.858;2024-03-29T05:05:47;98788.59;;;5.27;67.72
34674;BME280;20879;55.668;37.858;2024-03-29T05:10:57;98777.59;;;5.08;67.46
34674;BME280;20879;55.668;37.858;2024-03-29T05:16:15;98762.09;;;5.22;67.58
34674;BME280;20879;55.668;37.858;2024-03-29T05:21:22;98748.84;;;5.67;66.70
34674;BME280;20879;55.668;37.858;2024-03-29T05:26:30;98741.25;;;5.54;65.90
34674;BME280;20879;55.668;37.858;2024-03-29T05:31:40;98742.88;;;5.63;65.74
34674;BME280;20879;55.668;37.858;2024-03-29T05:36:51;98743.09;;;6.22;64.96
34674;BME280;20879;55.668;37.858;2024-03-29T05:42:06;98727.63;;;6.25;63.53
34674;BME280;20879;55.668;37.858;2024-03-29T05:47:20;98737.28;;;6.06;63.83
34674;BME280;20879;55.668;37.858;2024-03-29T05:52:28;98743.81;;;6.30;63.72
34674;BME280;20879;55.668;37.858;2024-03-29T05:57:33;98739.16;;;6.59;63.47
34674;BME280;20879;55.668;37.858;2024-03-29T06:02:45;98757.31;;;7.03;62.03
34674;BME280;20879;55.668;37.858;2024-03-29T06:07:51;98740.09;;;7.08;62.01
34674;BME280;20879;55.668;37.858;2024-03-29T06:12:58;98737.06;;;7.34;60.87
34674;BME280;20879;55.668;37.858;2024-03-29T06:18:19;98748.56;;;7.61;59.73
34674;BME280;20879;55.668;37.858;2024-03-29T06:23:23;98739.59;;;7.82;59.67
34674;BME280;20879;55.668;37.858;2024-03-29T06:28:32;98734.22;;;7.48;59.28
34674;BME280;20879;55.668;37.858;2024-03-29T06:33:41;98748.91;;;7.90;59.16
34674;BME280;20879;55.668;37.858;2024-03-29T06:38:52;98737.44;;;8.04;57.83
34674;BME280;20879;55.668;37.858;2024-03-29T06:44:10;98732.56;;;8.31;57.62
34674;BME280;20879;55.668;37.858;2024-03-29T06:49:27;98724.34;;;8.92;55.93
34674;BME280;20879;55.668;37.858;2024-03-29T06:54:33;98736.41;;;9.26;55.05
34674;BME280;20879;55.668;37.858;2024-03-29T06:59:44;98732.84;;;9.32;54.41
34674;BME280;20879;55.668;37.858;2024-03-29T07:05:06;98723.94;;;8.73;53.97
34674;BME280;20879;55.668;37.858;2024-03-29T07:10:18;98721.50;;;8.67;54.54
34674;BME280;20879;55.668;37.858;2024-03-29T07:15:25;98708.56;;;8.68;54.58
34674;BME280;20879;55.668;37.858;2024-03-29T07:20:50;98711.72;;;8.80;54.22
34674;BME280;20879;55.668;37.858;2024-03-29T07:26:01;98711.41;;;8.94;54.03
34674;BME280;20879;55.668;37.858;2024-03-29T07:31:12;98710.63;;;8.90;54.06
34674;BME280;20879;55.668;37.858;2024-03-29T07:36:19;98701.41;;;8.80;54.13
34674;BME280;20879;55.668;37.858;2024-03-29T07:41:55;98692.81;;;8.79;54.37
34674;BME280;20879;55.668;37.858;2024-03-29T07:47:01;98692.19;;;8.69;54.10
34674;BME280;20879;55.668;37.858;2024-03-29T07:52:12;98691.34;;;8.30;55.08
34674;BME280;20879;55.668;37.858;2024-03-29T07:57:30;98686.94;;;7.52;57.14
34674;BME280;20879;55.668;37.858;2024-03-29T08:02:39;98685.56;;;7.34;58.10
34674;BME280;20879;55.668;37.858;2024-03-29T08:07:48;98691.03;;;7.15;58.77
34674;BME280;20879;55.668;37.858;2024-03-29T08:13:10;98685.63;;;6.81;61.16
34674;BME280;20879;55.668;37.858;2024-03-29T08:18:28;98658.31;;;6.74;61.35
34674;BME280;20879;55.668;37.858;2024-03-29T08:23:51;98645.38;;;6.78;61.66
34674;BME280;20879;55.668;37.858;2024-03-29T08:29:07;98639.03;;;6.96;62.86
34674;BME280;20879;55.668;37.858;2024-03-29T08:34:13;98650.94;;;7.04;62.48
34674;BME280;20879;55.668;37.858;2024-03-29T08:39:41;98664.59;;;7.54;62.09
34674;BME280;20879;55.668;37.858;2024-03-29T08:44:47;98656.69;;;7.62;61.98
34674;BME280;20879;55.668;37.858;2024-03-29T08:49:53;98674.69;;;7.63;61.84
34674;BME280;20879;55.668;37.858;2024-03-29T08:55:14;98664.28;;;7.69;62.74
34674;BME280;20879;55.668;37.858;2024-03-29T09:00:38;98657.84;;;7.91;62.46
34674;BME280;20879;55.668;37.858;2024-03-29T09:06:06;98655.44;;;7.81;62.63
34674;BME280;20879;55.668;37.858;2024-03-29T09:11:13;98656.78;;;7.59;63.47
34674;BME280;20879;55.668;37.858;2024-03-29T09:16:32;98641.09;;;7.69;62.95
34674;BME280;20879;55.668;37.858;2024-03-29T09:21:45;98638.78;;;7.96;62.09
34674;BME280;20879;55.668;37.858;2024-03-29T09:26:58;98630.94;;;7.62;62.32
34674;BME280;20879;55.668;37.858;2024-03-29T09:32:05;98630.22;;;7.53;62.91
34674;BME280;20879;55.668;37.858;2024-03-29T09:42:38;98627.94;;;8.59;59.83
34674;BME280;20879;55.668;37.858;2024-03-29T09:47:57;98629.13;;;8.80;58.68
34674;BME280;20879;55.668;37.858;2024-03-29T09:53:13;98616.19;;;8.81;58.74
34674;BME280;20879;55.668;37.858;2024-03-29T09:58:22;98621.66;;;8.31;59.60
34674;BME280;20879;55.668;37.858;2024-03-29T10:03:37;98619.41;;;7.78;61.04
34674;BME280;20879;55.668;37.858;2024-03-29T10:08:48;98629.91;;;7.70;61.49
34674;BME280;20879;55.668;37.858;2024-03-29T10:14:00;98622.31;;;8.03;60.41
34674;BME280;20879;55.668;37.858;2024-03-29T10:19:09;98612.75;;;8.48;59.64
34674;BME280;20879;55.668;37.858;2024-03-29T10:24:16;98609.47;;;8.76;58.97
34674;BME280;20879;55.668;37.858;2024-03-29T10:29:29;98610.44;;;9.04;58.18
34674;BME280;20879;55.668;37.858;2024-03-29T10:34:44;98595.78;;;9.36;57.37
34674;BME280;20879;55.668;37.858;2024-03-29T10:39:57;98597.44;;;9.69;56.49
34674;BME280;20879;55.668;37.858;2024-03-29T10:45:10;98594.91;;;9.95;55.69
34674;BME280;20879;55.668;37.858;2024-03-29T10:50:27;98584.81;;;9.88;56.34
34674;BME280;20879;55.668;37.858;2024-03-29T10:55:41;98558.88;;;9.31;57.04
34674;BME280;20879;55.668;37.858;2024-03-29T11:01:03;98571.00;;;9.60;56.27
34674;BME280;20879;55.668;37.858;2024-03-29T11:06:15;98583.81;;;10.20;55.38
34674;BME280;20879;55.668;37.858;2024-03-29T11:11:22;98565.38;;;10.58;54.29
34674;BME280;20879;55.668;37.858;2024-03-29T11:16:39;98551.66;;;10.81;53.71
34674;BME280;20879;55.668;37.858;2024-03-29T11:21:56;98553.91;;;10.90;53.74
34674;BME280;20879;55.668;37.858;2024-03-29T11:27:11;98540.63;;;10.99;52.71
34674;BME280;20879;55.668;37.858;2024-03-29T11:32:37;98541.78;;;11.16;52.84
34674;BME280;20879;55.668;37.858;2024-03-29T11:37:56;98543.91;;;11.28;51.98
34674;BME280;20879;55.668;37.858;2024-03-29T11:43:24;98538.22;;;11.18;52.69
34674;BME280;20879;55.668;37.858;2024-03-29T11:48:33;98543.19;;;11.25;52.40
34674;BME280;20879;55.668;37.858;2024-03-29T11:53:44;98534.84;;;11.16;52.85
34674;BME280;20879;55.668;37.858;2024-03-29T11:58:52;98536.09;;;10.29;54.21
34674;BME280;20879;55.668;37.858;2024-03-29T12:04:19;98542.78;;;9.53;56.80
34674;BME280;20879;55.668;37.858;2024-03-29T12:09:26;98547.19;;;8.88;58.30
34674;BME280;20879;55.668;37.858;2024-03-29T12:14:38;98555.19;;;8.44;59.59
34674;BME280;20879;55.668;37.858;2024-03-29T12:19:47;98541.63;;;8.34;60.88
34674;BME280;20879;55.668;37.858;2024-03-29T12:25:10;98538.44;;;8.26;61.70
34674;BME280;20879;55.668;37.858;2024-03-29T12:30:22;98553.97;;;8.23;62.00
34674;BME280;20879;55.668;37.858;2024-03-29T12:35:34;98560.84;;;8.22;61.77
34674;BME280;20879;55.668;37.858;2024-03-29T12:47:27;98545.69;;;8.10;63.43
34674;BME280;20879;55.668;37.858;2024-03-29T12:52:40;98531.59;;;8.23;63.45
34674;BME280;20879;55.668;37.858;2024-03-29T12:57:54;98531.25;;;8.37;63.39
34674;BME280;20879;55.668;37.858;2024-03-29T13:03:04;98541.31;;;8.50;63.61
34674;BME280;20879;55.668;37.858;2024-03-29T13:08:14;98523.13;;;8.54;63.21
34674;BME280;20879;55.668;37.858;2024-03-29T13:18:58;98520.09;;;8.71;63.68
34674;BME280;20879;55.668;37.858;2024-03-29T13:24:12;98511.41;;;8.76;63.84
34674;BME280;20879;55.668;37.858;2024-03-29T13:29:19;98519.94;;;8.78;63.79
34674;BME280;20879;55.668;37.858;2024-03-29T13:34:36;98512.19;;;8.78;63.72
34674;BME280;20879;55.668;37.858;2024-03-29T13:39:44;98530.16;;;8.81;63.87
34674;BME280;20879;55.668;37.858;2024-03-29T13:44:49;98508.72;;;8.79;63.85
34674;BME280;20879;55.668;37.858;2024-03-29T13:50:04;98517.22;;;8.82;64.14
34674;BME280;20879;55.668;37.858;2024-03-29T13:55:09;98505.75;;;8.92;63.69
34674;BME280;20879;55.668;37.858;2024-03-29T14:00:22;98513.31;;;8.67;64.40
34674;BME280;20879;55.668;37.858;2024-03-29T14:05:30;98512.84;;;8.86;64.80
34674;BME280;20879;55.668;37.858;2024-03-29T14:10:39;98510.16;;;9.49;63.02
34674;BME280;20879;55.668;37.858;2024-03-29T14:15:46;98511.31;;;9.38;63.13
34674;BME280;20879;55.668;37.858;2024-03-29T14:21:06;98515.66;;;9.08;64.45
34674;BME280;20879;55.668;37.858;2024-03-29T14:26:18;98516.28;;;8.85;64.96
34674;BME280;20879;55.668;37.858;2024-03-29T14:31:33;98520.25;;;8.65;65.13
34674;BME280;20879;55.668;37.858;2024-03-29T14:36:45;98529.16;;;8.53;66.34
34674;BME280;20879;55.668;37.858;2024-03-29T14:41:56;98527.13;;;8.32;66.53
34674;BME280;20879;55.668;37.858;2024-03-29T14:47:04;98523.78;;;8.27;66.97
34674;BME280;20879;55.668;37.858;2024-03-29T14:52:20;98522.50;;;8.09;68.00
34674;BME280;20879;55.668;37.858;2024-03-29T14:57:42;98525.59;;;7.87;68.19
34674;BME280;20879;55.668;37.858;2024-03-29T15:02:49;98533.78;;;7.67;68.50
34674;BME280;20879;55.668;37.858;2024-03-29T15:08:06;98521.28;;;7.50;70.07
34674;BME280;20879;55.668;37.858;2024-03-29T15:13:28;98525.63;;;7.46;69.49
34674;BME280;20879;55.668;37.858;2024-03-29T15:18:33;98528.69;;;7.23;70.31
34674;BME280;20879;55.668;37.858;2024-03-29T15:23:43;98522.44;;;6.94;71.39
34674;BME280;20879;55.668;37.858;2024-03-29T15:28:49;98522.81;;;6.73;72.04
34674;BME280;20879;55.668;37.858;2024-03-29T15:34:14;98534.28;;;6.56;72.61
34674;BME280;20879;55.668;37.858;2024-03-29T15:39:20;98525.28;;;6.30;73.30
34674;BME280;20879;55.668;37.858;2024-03-29T15:44:29;98537.50;;;6.16;73.33
34674;BME280;20879;55.668;37.858;2024-03-29T15:49:38;98542.84;;;6.05;74.16
34674;BME280;20879;55.668;37.858;2024-03-29T15:54:46;98549.91;;;5.88;75.40
34674;BME280;20879;55.668;37.858;2024-03-29T15:59:52;98544.25;;;5.66;75.73
34674;BME280;20879;55.668;37.858;2024-03-29T16:05:01;98547.84;;;5.52;76.06
34674;BME280;20879;55.668;37.858;2024-03-29T16:10:19;98560.88;;;5.37;77.05
34674;BME280;20879;55.668;37.858;2024-03-29T16:15:24;98560.28;;;5.16;76.82
34674;BME280;20879;55.668;37.858;2024-03-29T16:20:33;98563.91;;;4.98;77.57
34674;BME280;20879;55.668;37.858;2024-03-29T16:25:42;98535.09;;;4.75;79.36
34674;BME280;20879;55.668;37.858;2024-03-29T16:30:59;98554.81;;;4.68;79.31
34674;BME280;20879;55.668;37.858;2024-03-29T16:36:08;98566.84;;;4.60;80.77
34674;BME280;20879;55.668;37.858;2024-03-29T16:41:15;98569.50;;;4.50;80.95
34674;BME280;20879;55.668;37.858;2024-03-29T16:46:31;98563.59;;;4.42;81.31
34674;BME280;20879;55.668;37.858;2024-03-29T16:51:49;98570.41;;;4.46;82.91
34674;BME280;20879;55.668;37.858;2024-03-29T16:56:58;98545.84;;;4.22;83.05
34674;BME280;20879;55.668;37.858;2024-03-29T17:02:11;98563.78;;;4.20;82.92
34674;BME280;20879;55.668;37.858;2024-03-29T17:07:23;98575.00;;;4.07;83.19
34674;BME280;20879;55.668;37.858;2024-03-29T17:12:40;98573.34;;;3.94;84.37
34674;BME280;20879;55.668;37.858;2024-03-29T17:17:50;98584.53;;;3.80;84.15
34674;BME280;20879;55.668;37.858;2024-03-29T17:23:02;98586.28;;;3.78;85.94
34674;BME280;20879;55.668;37.858;2024-03-29T17:28:12;98579.50;;;3.71;85.10
34674;BME280;20879;55.668;37.858;2024-03-29T17:33:26;98584.59;;;3.74;85.11
34674;BME280;20879;55.668;37.858;2024-03-29T17:38:38;98588.00;;;3.79;85.57
34674;BME280;20879;55.668;37.858;2024-03-29T17:44:00;98593.09;;;3.76;85.87
34674;BME280;20879;55.668;37.858;2024-03-29T17:49:12;98583.72;;;3.78;85.27
34674;BME280;20879;55.668;37.858;2024-03-29T17:54:29;98588.78;;;3.88;87.17
34674;BME280;20879;55.668;37.858;2024-03-29T17:59:40;98592.28;;;3.74;86.47
34674;BME280;20879;55.668;37.858;2024-03-29T18:04:45;98595.75;;;3.62;85.92
34674;BME280;20879;55.668;37.858;2024-03-29T18:09:54;98588.09;;;3.58;86.59
34674;BME280;20879;55.668;37.858;2024-03-29T18:15:08;98591.47;;;3.63;87.98
34674;BME280;20879;55.668;37.858;2024-03-29T18:20:28;98586.28;;;3.78;87.23
34674;BME280;20879;55.668;37.858;2024-03-29T18:25:39;98585.31;;;3.96;87.44
34674;BME280;20879;55.668;37.858;2024-03-29T18:30:49;98580.63;;;4.49;87.40
34674;BME280;20879;55.668;37.858;2024-03-29T18:36:06;98589.69;;;4.86;86.00
34674;BME280;20879;55.668;37.858;2024-03-29T18:41:11;98577.31;;;5.22;85.18
34674;BME280;20879;55.668;37.858;2024-03-29T18:46:29;98580.44;;;5.46;84.96
34674;BME280;20879;55.668;37.858;2024-03-29T18:51:36;98575.34;;;5.44;84.75
34674;BME280;20879;55.668;37.858;2024-03-29T19:02:05;98554.56;;;4.93;85.93
34674;BME280;20879;55.668;37.858;2024-03-29T19:07:32;98592.25;;;4.84;86.36
34674;BME280;20879;55.668;37.858;2024-03-29T19:12:42;98586.44;;;4.68;86.92
34674;BME280;20879;55.668;37.858;2024-03-29T19:17:51;98580.66;;;4.46;88.00
34674;BME280;20879;55.668;37.858;2024-03-29T19:22:57;98598.56;;;4.54;87.80
34674;BME280;20879;55.668;37.858;2024-03-29T19:28:04;98610.44;;;4.61;87.78
34674;BME280;20879;55.668;37.858;2024-03-29T19:33:13;98613.81;;;4.66;88.45
34674;BME280;20879;55.668;37.858;2024-03-29T19:38:23;98620.56;;;4.75;87.75
34674;BME280;20879;55.668;37.858;2024-03-29T19:43:28;98628.13;;;4.87;87.61
34674;BME280;20879;55.668;37.858;2024-03-29T19:48:42;98627.19;;;4.98;88.62
34674;BME280;20879;55.668;37.858;2024-03-29T19:53:54;98632.16;;;5.13;88.25
34674;BME280;20879;55.668;37.858;2024-03-29T19:59:02;98636.41;;;5.17;87.55
34674;BME280;20879;55.668;37.858;2024-03-29T20:04:23;98641.47;;;5.23;88.09
34674;BME280;20879;55.668;37.858;2024-03-29T20:09:35;98643.09;;;5.32;88.64
34674;BME280;20879;55.668;37.858;2024-03-29T20:14:48;98638.72;;;5.40;88.96
34674;BME280;20879;55.668;37.858;2024-03-29T20:20:01;98646.31;;;5.48;88.24
34674;BME280;20879;55.668;37.858;2024-03-29T20:25:10;98642.00;;;5.52;87.62
34674;BME280;20879;55.668;37.858;2024-03-29T20:30:18;98632.72;;;5.40;88.29
34674;BME280;20879;55.668;37.858;2024-03-29T20:35:25;98648.75;;;5.59;88.65
34674;BME280;20879;55.668;37.858;2024-03-29T20:40:47;98661.53;;;5.67;87.97
34674;BME280;20879;55.668;37.858;2024-03-29T20:46:09;98659.66;;;5.76;88.14
34674;BME280;20879;55.668;37.858;2024-03-29T20:51:34;98668.03;;;5.92;88.26
34674;BME280;20879;55.668;37.858;2024-03-29T20:56:48;98679.69;;;6.21;88.38
34674;BME280;20879;55.668;37.858;2024-03-29T21:01:56;98679.44;;;6.37;88.53
34674;BME280;20879;55.668;37.858;2024-03-29T21:07:23;98686.94;;;6.52;89.07
34674;BME280;20879;55.668;37.858;2024-03-29T21:12:40;98683.53;;;6.52;89.05
34674;BME280;20879;55.668;37.858;2024-03-29T21:17:53;98682.28;;;6.76;89.81
34674;BME280;20879;55.668;37.858;2024-03-29T21:23:17;98694.94;;;6.90;90.26
34674;BME280;20879;55.668;37.858;2024-03-29T21:28:26;98701.91;;;6.81;90.89
34674;BME280;20879;55.668;37.858;2024-03-29T21:33:45;98708.16;;;6.67;92.04
34674;BME280;20879;55.668;37.858;2024-03-29T21:38:55;98706.59;;;6.56;92.27
34674;BME280;20879;55.668;37.858;2024-03-29T21:44:09;98723.75;;;6.54;92.15
34674;BME280;20879;55.668;37.858;2024-03-29T21:49:32;98715.28;;;6.49;92.94
34674;BME280;20879;55.668;37.858;2024-03-29T21:54:46;98727.03;;;6.65;92.92
34674;BME280;20879;55.668;37.858;2024-03-29T21:59:58;98733.78;;;6.73;93.25
34674;BME280;20879;55.668;37.858;2024-03-29T22:05:08;98752.78;;;6.64;93.02
34674;BME280;20879;55.668;37.858;2024-03-29T22:10:29;98765.13;;;6.39;93.53
34674;BME280;20879;55.668;37.858;2024-03-29T22:15:40;98776.50;;;6.19;94.36
34674;BME280;20879;55.668;37.858;2024-03-29T22:21:15;98728.88;;;5.90;95.33
34674;BME280;20879;55.668;37.858;2024-03-29T22:26:24;98762.59;;;6.37;94.64
34674;BME280;20879;55.668;37.858;2024-03-29T22:31:39;98765.81;;;6.52;93.79
34674;BME280;20879;55.668;37.858;2024-03-29T22:36:48;98766.53;;;6.61;93.87
34674;BME280;20879;55.668;37.858;2024-03-29T22:42:00;98763.22;;;6.53;93.83
34674;BME280;20879;55.668;37.858;2024-03-29T22:47:15;98778.66;;;6.53;94.15
34674;BME280;20879;55.668;37.858;2024-03-29T22:52:27;98778.72;;;6.50;93.75
34674;BME280;20879;55.668;37.858;2024-03-29T22:57:35;98801.88;;;6.47;94.60
34674;BME280;20879;55.668;37.858;2024-03-29T23:02:51;98788.25;;;6.40;94.37
34674;BME280;20879;55.668;37.858;2024-03-29T23:07:59;98789.06;;;6.42;94.60
34674;BME280;20879;55.668;37.858;2024-03-29T23:13:07;98787.28;;;6.49;94.54
34674;BME280;20879;55.668;37.858;2024-03-29T23:18:19;98787.25;;;6.52;94.81
34674;BME280;20879;55.668;37.858;2024-03-29T23:23:33;98798.31;;;6.56;94.02
34674;BME280;20879;55.668;37.858;2024-03-29T23:28:47;98794.94;;;6.54;94.16
34674;BME280;20879;55.668;37.858;2024-03-29T23:33:56;98794.13;;;6.50;94.75
34674;BME280;20879;55.668;37.858;2024-03-29T23:39:19;98803.66;;;6.43;94.46
34674;BME280;20879;55.668;37.858;2024-03-29T23:44:27;98820.91;;;6.32;94.90
34674;BME280;20879;55.668;37.858;2024-03-29T23:49:37;98820.94;;;6.30;94.49
34674;BME280;20879;55.668;37.858;2024-03-29T23:54:58;98820.16;;;6.25;95.68
